sensor_id;sensor_type;location;lat;lon;timestamp;temperature;humidity
9125;DHT22;4597;48.730;9.114;2023-02-08T00:00:20;-2.80;99.90
9125;DHT22;4597;48.730;9.114;2023-02-08T00:02:46;-2.90;99.90
9125;DHT22;4597;48.730;9.114;2023-02-08T00:05:12;-2.90;99.90
9125;DHT22;4597;48.730;9.114;2023-02-08T00:07:37;-2.90;99.90
9125;DHT22;4597;48.730;9.114;2023-02-08T00:10:03;-2.90;99.90
9125;DHT22;4597;48.730;9.114;2023-02-08T00:12:31;-2.90;99.90
9125;DHT22;4597;48.730;9.114;2023-02-08T00:14:57;-3.00;99.90
9125;DHT22;4597;48.730;9.114;2023-02-08T00:17:22;-3.00;99.90
9125;DHT22;4597;48.730;9.114;2023-02-08T00:19:48;-3.00;99.90
9125;DHT22;4597;48.730;9.114;2023-02-08T00:22:13;-3.00;99.90
9125;DHT22;4597;48.730;9.114;2023-02-08T00:24:39;-3.10;99.90
9125;DHT22;4597;48.730;9.114;2023-02-08T00:27:05;-3.10;99.90
9125;DHT22;4597;48.730;9.114;2023-02-08T00:29:30;-3.20;99.90
9125;DHT22;4597;48.730;9.114;2023-02-08T00:31:56;-3.20;99.90
9125;DHT22;4597;48.730;9.114;2023-02-08T00:34:21;-3.20;99.90
9125;DHT22;4597;48.730;9.114;2023-02-08T00:36:47;-3.20;99.90
9125;DHT22;4597;48.730;9.114;2023-02-08T00:39:12;-3.20;99.90
9125;DHT22;4597;48.730;9.114;2023-02-08T00:41:38;-3.20;99.90
9125;DHT22;4597;48.730;9.114;2023-02-08T00:44:04;-3.20;99.90
9125;DHT22;4597;48.730;9.114;2023-02-08T00:46:29;-3.20;99.90
9125;DHT22;4597;48.730;9.114;2023-02-08T00:48:55;-3.30;99.90
9125;DHT22;4597;48.730;9.114;2023-02-08T00:51:20;-3.30;99.90
9125;DHT22;4597;48.730;9.114;2023-02-08T00:53:46;-3.40;99.90
9125;DHT22;4597;48.730;9.114;2023-02-08T00:56:13;-3.40;99.90
9125;DHT22;4597;48.730;9.114;2023-02-08T00:58:38;-3.40;99.90
9125;DHT22;4597;48.730;9.114;2023-02-08T01:01:05;-3.40;99.90
9125;DHT22;4597;48.730;9.114;2023-02-08T01:03:35;-3.40;99.90
9125;DHT22;4597;48.730;9.114;2023-02-08T01:06:04;-3.50;99.90
9125;DHT22;4597;48.730;9.114;2023-02-08T01:08:30;-3.50;99.90
9125;DHT22;4597;48.730;9.114;2023-02-08T01:13:29;-3.40;99.90
9125;DHT22;4597;48.730;9.114;2023-02-08T01:15:55;-3.40;99.90
9125;DHT22;4597;48.730;9.114;2023-02-08T01:18:20;-3.40;99.90
9125;DHT22;4597;48.730;9.114;2023-02-08T01:20:45;-3.50;99.90
9125;DHT22;4597;48.730;9.114;2023-02-08T01:23:11;-3.50;99.90
9125;DHT22;4597;48.730;9.114;2023-02-08T01:25:36;-3.50;99.90
9125;DHT22;4597;48.730;9.114;2023-02-08T01:28:02;-3.60;99.90
9125;DHT22;4597;48.730;9.114;2023-02-08T01:30:28;-3.60;99.90
9125;DHT22;4597;48.730;9.114;2023-02-08T01:32:53;-3.60;99.90
9125;DHT22;4597;48.730;9.114;2023-02-08T01:35:19;-3.60;99.90
9125;DHT22;4597;48.730;9.114;2023-02-08T01:37:44;-3.60;99.90
9125;DHT22;4597;48.730;9.114;2023-02-08T01:40:10;-3.60;99.90
9125;DHT22;4597;48.730;9.114;2023-02-08T01:42:35;-3.60;99.90
9125;DHT22;4597;48.730;9.114;2023-02-08T01:47:47;-3.60;99.90
9125;DHT22;4597;48.730;9.114;2023-02-08T01:50:14;-3.60;99.90
9125;DHT22;4597;48.730;9.114;2023-02-08T01:52:42;-3.70;99.90
9125;DHT22;4597;48.730;9.114;2023-02-08T01:55:17;-3.70;99.90
9125;DHT22;4597;48.730;9.114;2023-02-08T01:57:44;-3.70;99.90
9125;DHT22;4597;48.730;9.114;2023-02-08T02:00:16;-3.80;99.90
9125;DHT22;4597;48.730;9.114;2023-02-08T02:02:44;-3.80;99.90
9125;DHT22;4597;48.730;9.114;2023-02-08T02:05:12;-3.80;99.90
9125;DHT22;4597;48.730;9.114;2023-02-08T02:07:38;-3.70;99.90
9125;DHT22;4597;48.730;9.114;2023-02-08T02:10:26;-3.70;99.90
9125;DHT22;4597;48.730;9.114;2023-02-08T02:12:54;-3.70;99.90
9125;DHT22;4597;48.730;9.114;2023-02-08T02:15:20;-3.80;99.90
9125;DHT22;4597;48.730;9.114;2023-02-08T02:17:46;-3.80;99.90
9125;DHT22;4597;48.730;9.114;2023-02-08T02:33:54;-3.90;99.90
9125;DHT22;4597;48.730;9.114;2023-02-08T02:39:38;-3.90;99.90
9125;DHT22;4597;48.730;9.114;2023-02-08T02:45:15;-3.90;99.90
9125;DHT22;4597;48.730;9.114;2023-02-08T02:47:57;-3.90;99.90
9125;DHT22;4597;48.730;9.114;2023-02-08T02:50:43;-3.90;99.90
9125;DHT22;4597;48.730;9.114;2023-02-08T02:53:20;-3.90;99.90
9125;DHT22;4597;48.730;9.114;2023-02-08T02:55:53;-3.90;99.90
9125;DHT22;4597;48.730;9.114;2023-02-08T02:58:21;-3.90;99.90
9125;DHT22;4597;48.730;9.114;2023-02-08T03:00:55;-3.90;99.90
9125;DHT22;4597;48.730;9.114;2023-02-08T03:03:24;-3.90;99.90
9125;DHT22;4597;48.730;9.114;2023-02-08T03:05:52;-3.90;99.90
9125;DHT22;4597;48.730;9.114;2023-02-08T03:11:36;-4.00;99.90
9125;DHT22;4597;48.730;9.114;2023-02-08T03:19:21;-4.00;99.90
9125;DHT22;4597;48.730;9.114;2023-02-08T03:21:57;-4.00;99.90
9125;DHT22;4597;48.730;9.114;2023-02-08T03:24:49;-4.00;99.90
9125;DHT22;4597;48.730;9.114;2023-02-08T03:30:20;-4.00;99.90
9125;DHT22;4597;48.730;9.114;2023-02-08T03:32:58;-4.00;99.90
9125;DHT22;4597;48.730;9.114;2023-02-08T03:38:00;-4.00;99.90
9125;DHT22;4597;48.730;9.114;2023-02-08T03:40:32;-4.10;99.90
9125;DHT22;4597;48.730;9.114;2023-02-08T03:43:03;-4.10;99.90
9125;DHT22;4597;48.730;9.114;2023-02-08T03:45:37;-4.10;99.90
9125;DHT22;4597;48.730;9.114;2023-02-08T03:48:06;-4.10;99.90
9125;DHT22;4597;48.730;9.114;2023-02-08T03:50:35;-4.10;99.90
9125;DHT22;4597;48.730;9.114;2023-02-08T03:53:03;-4.10;99.90
9125;DHT22;4597;48.730;9.114;2023-02-08T03:55:31;-4.10;99.90
9125;DHT22;4597;48.730;9.114;2023-02-08T03:58:17;-4.10;99.90
9125;DHT22;4597;48.730;9.114;2023-02-08T04:00:49;-4.10;99.90
9125;DHT22;4597;48.730;9.114;2023-02-08T04:03:19;-4.20;99.90
9125;DHT22;4597;48.730;9.114;2023-02-08T04:05:47;-4.10;99.90
9125;DHT22;4597;48.730;9.114;2023-02-08T04:08:12;-4.20;99.90
9125;DHT22;4597;48.730;9.114;2023-02-08T04:10:38;-4.20;99.90
9125;DHT22;4597;48.730;9.114;2023-02-08T04:13:03;-4.20;99.90
9125;DHT22;4597;48.730;9.114;2023-02-08T04:15:29;-4.20;99.90
9125;DHT22;4597;48.730;9.114;2023-02-08T04:17:55;-4.20;99.90
9125;DHT22;4597;48.730;9.114;2023-02-08T04:20:20;-4.20;99.90
9125;DHT22;4597;48.730;9.114;2023-02-08T04:22:46;-4.30;99.90
9125;DHT22;4597;48.730;9.114;2023-02-08T04:25:11;-4.30;99.90
9125;DHT22;4597;48.730;9.114;2023-02-08T04:27:37;-4.30;99.90
9125;DHT22;4597;48.730;9.114;2023-02-08T04:30:03;-4.40;99.90
9125;DHT22;4597;48.730;9.114;2023-02-08T04:32:29;-4.40;99.90
9125;DHT22;4597;48.730;9.114;2023-02-08T04:34:55;-4.50;99.90
9125;DHT22;4597;48.730;9.114;2023-02-08T04:37:20;-4.50;99.90
9125;DHT22;4597;48.730;9.114;2023-02-08T04:39:46;-4.50;99.90
9125;DHT22;4597;48.730;9.114;2023-02-08T04:42:11;-4.60;99.90
9125;DHT22;4597;48.730;9.114;2023-02-08T04:44:37;-4.60;99.90
9125;DHT22;4597;48.730;9.114;2023-02-08T04:47:02;-4.70;99.90
9125;DHT22;4597;48.730;9.114;2023-02-08T04:49:28;-4.70;99.90
9125;DHT22;4597;48.730;9.114;2023-02-08T04:51:53;-4.70;99.90
9125;DHT22;4597;48.730;9.114;2023-02-08T04:54:19;-4.60;99.90
9125;DHT22;4597;48.730;9.114;2023-02-08T04:56:44;-4.60;99.90
9125;DHT22;4597;48.730;9.114;2023-02-08T04:59:10;-4.60;99.90
9125;DHT22;4597;48.730;9.114;2023-02-08T05:01:35;-4.70;99.90
9125;DHT22;4597;48.730;9.114;2023-02-08T05:04:01;-4.70;99.90
9125;DHT22;4597;48.730;9.114;2023-02-08T05:06:26;-4.80;99.90
9125;DHT22;4597;48.730;9.114;2023-02-08T05:08:52;-4.90;99.90
9125;DHT22;4597;48.730;9.114;2023-02-08T05:11:22;-5.00;99.90
9125;DHT22;4597;48.730;9.114;2023-02-08T05:13:48;-5.00;99.90
9125;DHT22;4597;48.730;9.114;2023-02-08T05:16:14;-5.00;99.90
9125;DHT22;4597;48.730;9.114;2023-02-08T05:18:40;-5.00;99.90
9125;DHT22;4597;48.730;9.114;2023-02-08T05:21:05;-5.00;99.90
9125;DHT22;4597;48.730;9.114;2023-02-08T05:23:31;-5.00;99.90
9125;DHT22;4597;48.730;9.114;2023-02-08T05:25:57;-5.00;99.90
9125;DHT22;4597;48.730;9.114;2023-02-08T05:28:23;-5.00;99.90
9125;DHT22;4597;48.730;9.114;2023-02-08T05:30:49;-5.00;99.90
9125;DHT22;4597;48.730;9.114;2023-02-08T05:33:14;-5.00;99.90
9125;DHT22;4597;48.730;9.114;2023-02-08T05:35:40;-5.00;99.90
9125;DHT22;4597;48.730;9.114;2023-02-08T05:38:06;-5.10;99.90
9125;DHT22;4597;48.730;9.114;2023-02-08T05:40:32;-5.10;99.90
9125;DHT22;4597;48.730;9.114;2023-02-08T05:42:57;-5.10;99.90
9125;DHT22;4597;48.730;9.114;2023-02-08T05:45:23;-5.10;99.90
9125;DHT22;4597;48.730;9.114;2023-02-08T05:47:49;-5.10;99.90
9125;DHT22;4597;48.730;9.114;2023-02-08T05:50:14;-5.10;99.90
9125;DHT22;4597;48.730;9.114;2023-02-08T05:52:40;-5.20;99.90
9125;DHT22;4597;48.730;9.114;2023-02-08T05:55:06;-5.20;99.90
9125;DHT22;4597;48.730;9.114;2023-02-08T05:57:31;-5.30;99.90
9125;DHT22;4597;48.730;9.114;2023-02-08T05:59:57;-5.20;99.90
9125;DHT22;4597;48.730;9.114;2023-02-08T06:02:23;-5.30;99.90
9125;DHT22;4597;48.730;9.114;2023-02-08T06:04:48;-5.30;99.90
9125;DHT22;4597;48.730;9.114;2023-02-08T06:07:14;-5.30;99.90
9125;DHT22;4597;48.730;9.114;2023-02-08T06:09:39;-5.30;99.90
9125;DHT22;4597;48.730;9.114;2023-02-08T06:12:05;-5.20;99.90
9125;DHT22;4597;48.730;9.114;2023-02-08T06:14:31;-5.30;99.90
9125;DHT22;4597;48.730;9.114;2023-02-08T06:16:57;-5.30;99.90
9125;DHT22;4597;48.730;9.114;2023-02-08T06:19:22;-5.20;99.90
9125;DHT22;4597;48.730;9.114;2023-02-08T06:21:48;-5.20;99.90
9125;DHT22;4597;48.730;9.114;2023-02-08T06:24:13;-5.20;99.90
9125;DHT22;4597;48.730;9.114;2023-02-08T06:26:41;-5.20;99.90
9125;DHT22;4597;48.730;9.114;2023-02-08T06:29:07;-5.20;99.90
9125;DHT22;4597;48.730;9.114;2023-02-08T06:31:32;-5.20;99.90
9125;DHT22;4597;48.730;9.114;2023-02-08T06:33:58;-5.30;99.90
9125;DHT22;4597;48.730;9.114;2023-02-08T06:36:23;-5.30;99.90
9125;DHT22;4597;48.730;9.114;2023-02-08T06:38:49;-5.30;99.90
9125;DHT22;4597;48.730;9.114;2023-02-08T06:41:14;-5.30;99.90
9125;DHT22;4597;48.730;9.114;2023-02-08T06:43:40;-5.30;99.90
9125;DHT22;4597;48.730;9.114;2023-02-08T06:46:05;-5.30;99.90
9125;DHT22;4597;48.730;9.114;2023-02-08T06:48:33;-5.30;99.90
9125;DHT22;4597;48.730;9.114;2023-02-08T06:50:59;-5.30;99.90
9125;DHT22;4597;48.730;9.114;2023-02-08T06:53:25;-5.40;99.90
9125;DHT22;4597;48.730;9.114;2023-02-08T06:55:51;-5.40;99.90
9125;DHT22;4597;48.730;9.114;2023-02-08T06:58:17;-5.40;99.90
9125;DHT22;4597;48.730;9.114;2023-02-08T07:00:43;-5.40;99.90
9125;DHT22;4597;48.730;9.114;2023-02-08T07:03:13;-5.40;99.90
9125;DHT22;4597;48.730;9.114;2023-02-08T07:05:39;-5.40;99.90
9125;DHT22;4597;48.730;9.114;2023-02-08T07:08:06;-5.30;99.90
9125;DHT22;4597;48.730;9.114;2023-02-08T07:10:31;-5.30;99.90
9125;DHT22;4597;48.730;9.114;2023-02-08T07:12:57;-5.30;99.90
9125;DHT22;4597;48.730;9.114;2023-02-08T07:15:23;-5.40;99.90
9125;DHT22;4597;48.730;9.114;2023-02-08T07:17:48;-5.30;99.90
9125;DHT22;4597;48.730;9.114;2023-02-08T07:20:14;-5.30;99.90
9125;DHT22;4597;48.730;9.114;2023-02-08T07:22:40;-5.30;99.90
9125;DHT22;4597;48.730;9.114;2023-02-08T07:25:06;-5.30;99.90
9125;DHT22;4597;48.730;9.114;2023-02-08T07:27:32;-5.20;99.90
9125;DHT22;4597;48.730;9.114;2023-02-08T07:29:57;-5.20;99.90
9125;DHT22;4597;48.730;9.114;2023-02-08T07:32:23;-5.10;99.90
9125;DHT22;4597;48.730;9.114;2023-02-08T07:34:48;-5.10;99.90
9125;DHT22;4597;48.730;9.114;2023-02-08T07:37:14;-5.20;99.90
9125;DHT22;4597;48.730;9.114;2023-02-08T07:39:40;-5.10;99.90
9125;DHT22;4597;48.730;9.114;2023-02-08T07:42:07;-5.10;99.90
9125;DHT22;4597;48.730;9.114;2023-02-08T07:44:33;-5.00;99.90
9125;DHT22;4597;48.730;9.114;2023-02-08T07:46:58;-5.00;99.90
9125;DHT22;4597;48.730;9.114;2023-02-08T07:49:26;-5.00;99.90
9125;DHT22;4597;48.730;9.114;2023-02-08T07:51:51;-5.00;99.90
9125;DHT22;4597;48.730;9.114;2023-02-08T07:54:17;-4.90;99.90
9125;DHT22;4597;48.730;9.114;2023-02-08T07:56:42;-4.90;99.90
9125;DHT22;4597;48.730;9.114;2023-02-08T07:59:08;-4.90;99.90
9125;DHT22;4597;48.730;9.114;2023-02-08T08:01:33;-4.90;99.90
9125;DHT22;4597;48.730;9.114;2023-02-08T08:03:59;-4.90;99.90
9125;DHT22;4597;48.730;9.114;2023-02-08T08:06:25;-4.90;99.90
9125;DHT22;4597;48.730;9.114;2023-02-08T08:08:50;-4.80;99.90
9125;DHT22;4597;48.730;9.114;2023-02-08T08:11:17;-4.80;99.90
9125;DHT22;4597;48.730;9.114;2023-02-08T08:13:43;-4.70;99.90
9125;DHT22;4597;48.730;9.114;2023-02-08T08:16:09;-4.60;99.90
9125;DHT22;4597;48.730;9.114;2023-02-08T08:18:34;-4.50;99.90
9125;DHT22;4597;48.730;9.114;2023-02-08T08:21:01;-4.50;99.90
9125;DHT22;4597;48.730;9.114;2023-02-08T08:23:26;-4.50;99.90
9125;DHT22;4597;48.730;9.114;2023-02-08T08:25:53;-4.40;99.90
9125;DHT22;4597;48.730;9.114;2023-02-08T08:28:19;-4.30;99.90
9125;DHT22;4597;48.730;9.114;2023-02-08T08:30:44;-4.30;99.90
9125;DHT22;4597;48.730;9.114;2023-02-08T08:33:11;-4.20;99.90
9125;DHT22;4597;48.730;9.114;2023-02-08T08:35:38;-4.10;99.90
9125;DHT22;4597;48.730;9.114;2023-02-08T08:38:04;-4.00;99.90
9125;DHT22;4597;48.730;9.114;2023-02-08T08:40:30;-4.00;99.90
9125;DHT22;4597;48.730;9.114;2023-02-08T08:42:55;-4.00;99.90
9125;DHT22;4597;48.730;9.114;2023-02-08T08:45:21;-3.90;99.90
9125;DHT22;4597;48.730;9.114;2023-02-08T08:47:47;-3.80;99.90
9125;DHT22;4597;48.730;9.114;2023-02-08T08:50:13;-3.80;99.90
9125;DHT22;4597;48.730;9.114;2023-02-08T08:52:38;-3.60;99.90
9125;DHT22;4597;48.730;9.114;2023-02-08T08:55:05;-3.60;99.90
9125;DHT22;4597;48.730;9.114;2023-02-08T08:57:31;-3.60;99.90
9125;DHT22;4597;48.730;9.114;2023-02-08T08:59:56;-3.50;99.90
9125;DHT22;4597;48.730;9.114;2023-02-08T09:02:22;-3.40;99.90
9125;DHT22;4597;48.730;9.114;2023-02-08T09:04:47;-3.30;99.90
9125;DHT22;4597;48.730;9.114;2023-02-08T09:07:13;-3.20;99.90
9125;DHT22;4597;48.730;9.114;2023-02-08T09:09:38;-3.10;99.90
9125;DHT22;4597;48.730;9.114;2023-02-08T09:12:05;-3.00;99.90
9125;DHT22;4597;48.730;9.114;2023-02-08T09:14:31;-2.90;99.90
9125;DHT22;4597;48.730;9.114;2023-02-08T09:16:56;-2.90;99.90
9125;DHT22;4597;48.730;9.114;2023-02-08T09:19:22;-2.70;99.90
9125;DHT22;4597;48.730;9.114;2023-02-08T09:21:48;-2.60;99.90
9125;DHT22;4597;48.730;9.114;2023-02-08T09:24:13;-2.60;99.90
9125;DHT22;4597;48.730;9.114;2023-02-08T09:26:40;-2.50;99.90
9125;DHT22;4597;48.730;9.114;2023-02-08T09:29:05;-2.40;99.90
9125;DHT22;4597;48.730;9.114;2023-02-08T09:31:35;-2.30;99.90
9125;DHT22;4597;48.730;9.114;2023-02-08T09:34:03;-2.20;99.90
9125;DHT22;4597;48.730;9.114;2023-02-08T09:36:32;-2.20;99.90
9125;DHT22;4597;48.730;9.114;2023-02-08T09:39:03;-2.10;99.90
9125;DHT22;4597;48.730;9.114;2023-02-08T09:52:20;-1.70;99.90
9125;DHT22;4597;48.730;9.114;2023-02-08T09:54:52;-1.60;99.90
9125;DHT22;4597;48.730;9.114;2023-02-08T09:57:23;-1.60;99.90
9125;DHT22;4597;48.730;9.114;2023-02-08T09:59:59;-1.50;99.90
9125;DHT22;4597;48.730;9.114;2023-02-08T10:02:28;-1.40;99.90
9125;DHT22;4597;48.730;9.114;2023-02-08T10:04:58;-1.30;99.90
9125;DHT22;4597;48.730;9.114;2023-02-08T10:07:25;-1.20;99.90
9125;DHT22;4597;48.730;9.114;2023-02-08T10:09:53;-1.10;99.90
9125;DHT22;4597;48.730;9.114;2023-02-08T10:12:48;-1.10;99.90
9125;DHT22;4597;48.730;9.114;2023-02-08T10:20:57;-0.80;99.90
9125;DHT22;4597;48.730;9.114;2023-02-08T10:23:47;-0.70;99.90
9125;DHT22;4597;48.730;9.114;2023-02-08T10:26:33;-0.70;99.90
9125;DHT22;4597;48.730;9.114;2023-02-08T10:32:24;-0.50;99.90
9125;DHT22;4597;48.730;9.114;2023-02-08T10:35:45;-0.40;99.90
9125;DHT22;4597;48.730;9.114;2023-02-08T10:37:45;-0.30;99.90
9125;DHT22;4597;48.730;9.114;2023-02-08T10:42:51;-0.20;99.90
9125;DHT22;4597;48.730;9.114;2023-02-08T10:45:25;0.00;99.90
9125;DHT22;4597;48.730;9.114;2023-02-08T10:47:55;0.00;99.90
9125;DHT22;4597;48.730;9.114;2023-02-08T10:50:36;0.00;99.90
9125;DHT22;4597;48.730;9.114;2023-02-08T10:53:03;0.10;99.90
9125;DHT22;4597;48.730;9.114;2023-02-08T10:55:31;0.20;99.90
9125;DHT22;4597;48.730;9.114;2023-02-08T10:57:59;0.30;99.90
9125;DHT22;4597;48.730;9.114;2023-02-08T11:00:28;0.30;99.90
9125;DHT22;4597;48.730;9.114;2023-02-08T11:02:57;0.40;99.90
9125;DHT22;4597;48.730;9.114;2023-02-08T11:08:29;0.50;99.90
9125;DHT22;4597;48.730;9.114;2023-02-08T11:11:02;0.60;99.90
9125;DHT22;4597;48.730;9.114;2023-02-08T11:13:39;0.70;99.90
9125;DHT22;4597;48.730;9.114;2023-02-08T11:16:06;0.70;99.90
9125;DHT22;4597;48.730;9.114;2023-02-08T11:18:54;0.80;99.90
9125;DHT22;4597;48.730;9.114;2023-02-08T11:21:30;0.90;99.90
9125;DHT22;4597;48.730;9.114;2023-02-08T11:24:01;0.90;99.90
9125;DHT22;4597;48.730;9.114;2023-02-08T11:26:31;1.00;99.90
9125;DHT22;4597;48.730;9.114;2023-02-08T11:29:21;1.10;99.90
9125;DHT22;4597;48.730;9.114;2023-02-08T11:32:02;1.20;99.40
9125;DHT22;4597;48.730;9.114;2023-02-08T11:34:38;1.30;98.80
9125;DHT22;4597;48.730;9.114;2023-02-08T11:37:18;1.30;96.80
9125;DHT22;4597;48.730;9.114;2023-02-08T11:39:52;1.40;97.30
9125;DHT22;4597;48.730;9.114;2023-02-08T11:42:29;1.50;95.50
9125;DHT22;4597;48.730;9.114;2023-02-08T11:44:56;1.50;95.40
9125;DHT22;4597;48.730;9.114;2023-02-08T11:47:27;1.50;94.80
9125;DHT22;4597;48.730;9.114;2023-02-08T11:49:56;1.60;93.30
9125;DHT22;4597;48.730;9.114;2023-02-08T11:52:25;1.50;93.00
9125;DHT22;4597;48.730;9.114;2023-02-08T11:54:52;1.60;92.30
9125;DHT22;4597;48.730;9.114;2023-02-08T11:57:24;1.70;91.40
9125;DHT22;4597;48.730;9.114;2023-02-08T11:59:51;1.70;92.70
9125;DHT22;4597;48.730;9.114;2023-02-08T12:02:39;1.80;93.80
9125;DHT22;4597;48.730;9.114;2023-02-08T12:05:13;1.90;93.80
9125;DHT22;4597;48.730;9.114;2023-02-08T12:07:46;2.00;92.80
9125;DHT22;4597;48.730;9.114;2023-02-08T12:10:42;2.10;93.10
9125;DHT22;4597;48.730;9.114;2023-02-08T12:13:33;2.20;92.00
9125;DHT22;4597;48.730;9.114;2023-02-08T12:16:26;2.30;90.60
9125;DHT22;4597;48.730;9.114;2023-02-08T12:24:48;2.80;90.30
9125;DHT22;4597;48.730;9.114;2023-02-08T12:29:55;3.00;89.70
9125;DHT22;4597;48.730;9.114;2023-02-08T12:35:29;3.10;87.30
9125;DHT22;4597;48.730;9.114;2023-02-08T12:38:20;3.30;88.90
9125;DHT22;4597;48.730;9.114;2023-02-08T12:47:25;3.60;86.80
9125;DHT22;4597;48.730;9.114;2023-02-08T12:50:16;3.70;86.20
9125;DHT22;4597;48.730;9.114;2023-02-08T12:53:53;3.80;86.50
9125;DHT22;4597;48.730;9.114;2023-02-08T12:55:57;3.90;84.40
9125;DHT22;4597;48.730;9.114;2023-02-08T12:58:42;3.90;82.10
9125;DHT22;4597;48.730;9.114;2023-02-08T13:03:55;4.10;81.60
9125;DHT22;4597;48.730;9.114;2023-02-08T13:06:41;4.10;78.70
9125;DHT22;4597;48.730;9.114;2023-02-08T13:11:56;4.30;76.40
9125;DHT22;4597;48.730;9.114;2023-02-08T13:14:37;4.40;76.90
9125;DHT22;4597;48.730;9.114;2023-02-08T13:17:21;4.50;77.80
9125;DHT22;4597;48.730;9.114;2023-02-08T13:20:10;4.50;76.80
9125;DHT22;4597;48.730;9.114;2023-02-08T13:22:41;4.60;75.50
9125;DHT22;4597;48.730;9.114;2023-02-08T13:25:23;4.80;71.80
9125;DHT22;4597;48.730;9.114;2023-02-08T13:27:50;4.90;71.30
9125;DHT22;4597;48.730;9.114;2023-02-08T13:30:18;5.00;72.50
9125;DHT22;4597;48.730;9.114;2023-02-08T13:32:46;5.10;72.10
9125;DHT22;4597;48.730;9.114;2023-02-08T13:35:15;5.20;70.90
9125;DHT22;4597;48.730;9.114;2023-02-08T13:37:49;5.30;67.80
9125;DHT22;4597;48.730;9.114;2023-02-08T13:40:21;5.40;66.80
9125;DHT22;4597;48.730;9.114;2023-02-08T13:42:59;5.50;65.10
9125;DHT22;4597;48.730;9.114;2023-02-08T13:45:32;5.60;64.80
9125;DHT22;4597;48.730;9.114;2023-02-08T13:48:11;5.70;64.50
9125;DHT22;4597;48.730;9.114;2023-02-08T13:50:44;5.70;65.70
9125;DHT22;4597;48.730;9.114;2023-02-08T13:53:11;5.80;66.80
9125;DHT22;4597;48.730;9.114;2023-02-08T13:55:41;5.90;64.80
9125;DHT22;4597;48.730;9.114;2023-02-08T14:03:28;6.30;63.60
9125;DHT22;4597;48.730;9.114;2023-02-08T14:05:57;6.40;60.60
9125;DHT22;4597;48.730;9.114;2023-02-08T14:11:15;6.50;60.90
9125;DHT22;4597;48.730;9.114;2023-02-08T14:14:23;6.60;60.30
9125;DHT22;4597;48.730;9.114;2023-02-08T14:17:26;6.70;60.30
9125;DHT22;4597;48.730;9.114;2023-02-08T14:20:01;6.80;59.40
9125;DHT22;4597;48.730;9.114;2023-02-08T14:22:35;6.90;59.20
9125;DHT22;4597;48.730;9.114;2023-02-08T14:25:15;6.90;58.00
9125;DHT22;4597;48.730;9.114;2023-02-08T14:27:52;6.90;58.40
9125;DHT22;4597;48.730;9.114;2023-02-08T14:30:23;7.00;56.90
9125;DHT22;4597;48.730;9.114;2023-02-08T14:33:09;7.00;55.20
9125;DHT22;4597;48.730;9.114;2023-02-08T14:35:40;7.10;57.50
9125;DHT22;4597;48.730;9.114;2023-02-08T14:49:48;7.30;54.20
9125;DHT22;4597;48.730;9.114;2023-02-08T14:52:21;7.30;53.20
9125;DHT22;4597;48.730;9.114;2023-02-08T14:54:52;7.30;53.20
9125;DHT22;4597;48.730;9.114;2023-02-08T14:57:25;7.20;55.10
9125;DHT22;4597;48.730;9.114;2023-02-08T14:59:54;7.30;53.50
9125;DHT22;4597;48.730;9.114;2023-02-08T15:02:24;7.30;53.50
9125;DHT22;4597;48.730;9.114;2023-02-08T15:04:57;7.30;52.40
9125;DHT22;4597;48.730;9.114;2023-02-08T15:09:48;7.30;51.90
9125;DHT22;4597;48.730;9.114;2023-02-08T15:12:26;7.30;51.10
9125;DHT22;4597;48.730;9.114;2023-02-08T15:14:54;7.30;50.60
9125;DHT22;4597;48.730;9.114;2023-02-08T15:17:36;7.30;51.30
9125;DHT22;4597;48.730;9.114;2023-02-08T15:20:05;7.30;52.50
9125;DHT22;4597;48.730;9.114;2023-02-08T15:22:34;7.50;52.80
9125;DHT22;4597;48.730;9.114;2023-02-08T15:25:12;7.40;51.10
9125;DHT22;4597;48.730;9.114;2023-02-08T15:27:46;7.50;50.30
9125;DHT22;4597;48.730;9.114;2023-02-08T15:30:23;7.50;49.50
9125;DHT22;4597;48.730;9.114;2023-02-08T15:32:48;7.50;49.50
9125;DHT22;4597;48.730;9.114;2023-02-08T15:35:17;7.50;49.00
9125;DHT22;4597;48.730;9.114;2023-02-08T15:37:44;7.40;48.40
9125;DHT22;4597;48.730;9.114;2023-02-08T15:40:22;7.40;48.30
9125;DHT22;4597;48.730;9.114;2023-02-08T15:42:48;7.30;48.00
9125;DHT22;4597;48.730;9.114;2023-02-08T15:45:25;7.20;46.30
9125;DHT22;4597;48.730;9.114;2023-02-08T15:47:55;7.10;45.90
9125;DHT22;4597;48.730;9.114;2023-02-08T15:50:22;6.90;46.20
9125;DHT22;4597;48.730;9.114;2023-02-08T15:52:55;6.70;45.90
9125;DHT22;4597;48.730;9.114;2023-02-08T15:55:21;6.50;46.10
9125;DHT22;4597;48.730;9.114;2023-02-08T15:58:05;6.30;46.70
9125;DHT22;4597;48.730;9.114;2023-02-08T16:00:34;6.20;46.50
9125;DHT22;4597;48.730;9.114;2023-02-08T16:03:21;6.00;47.50
9125;DHT22;4597;48.730;9.114;2023-02-08T16:05:55;5.90;47.60
9125;DHT22;4597;48.730;9.114;2023-02-08T16:08:24;5.70;48.30
9125;DHT22;4597;48.730;9.114;2023-02-08T16:10:53;5.70;48.80
9125;DHT22;4597;48.730;9.114;2023-02-08T16:13:27;5.60;48.80
9125;DHT22;4597;48.730;9.114;2023-02-08T16:15:57;5.50;49.40
9125;DHT22;4597;48.730;9.114;2023-02-08T16:18:41;5.50;49.00
9125;DHT22;4597;48.730;9.114;2023-02-08T16:21:33;5.30;49.10
9125;DHT22;4597;48.730;9.114;2023-02-08T16:26:48;4.80;50.20
9125;DHT22;4597;48.730;9.114;2023-02-08T16:29:44;4.60;51.20
9125;DHT22;4597;48.730;9.114;2023-02-08T16:32:27;4.30;51.70
9125;DHT22;4597;48.730;9.114;2023-02-08T16:34:53;4.00;53.00
9125;DHT22;4597;48.730;9.114;2023-02-08T16:37:31;3.90;54.60
9125;DHT22;4597;48.730;9.114;2023-02-08T16:39:57;3.70;55.20
9125;DHT22;4597;48.730;9.114;2023-02-08T16:42:35;3.50;55.60
9125;DHT22;4597;48.730;9.114;2023-02-08T16:47:39;3.20;56.70
9125;DHT22;4597;48.730;9.114;2023-02-08T16:50:08;3.10;57.80
9125;DHT22;4597;48.730;9.114;2023-02-08T16:52:33;2.90;59.20
9125;DHT22;4597;48.730;9.114;2023-02-08T16:54:59;2.80;60.40
9125;DHT22;4597;48.730;9.114;2023-02-08T16:57:43;2.70;60.40
9125;DHT22;4597;48.730;9.114;2023-02-08T17:00:38;2.60;61.90
9125;DHT22;4597;48.730;9.114;2023-02-08T17:03:04;2.50;62.80
9125;DHT22;4597;48.730;9.114;2023-02-08T17:05:35;2.40;63.20
9125;DHT22;4597;48.730;9.114;2023-02-08T17:08:06;2.40;63.40
9125;DHT22;4597;48.730;9.114;2023-02-08T17:10:34;2.30;64.40
9125;DHT22;4597;48.730;9.114;2023-02-08T17:13:01;2.20;65.30
9125;DHT22;4597;48.730;9.114;2023-02-08T17:15:27;2.10;66.90
9125;DHT22;4597;48.730;9.114;2023-02-08T17:17:53;2.00;68.40
9125;DHT22;4597;48.730;9.114;2023-02-08T17:22:46;1.90;72.10
9125;DHT22;4597;48.730;9.114;2023-02-08T17:25:12;1.80;73.20
9125;DHT22;4597;48.730;9.114;2023-02-08T17:27:51;1.70;74.80
9125;DHT22;4597;48.730;9.114;2023-02-08T17:30:22;1.60;76.00
9125;DHT22;4597;48.730;9.114;2023-02-08T17:32:48;1.50;76.80
9125;DHT22;4597;48.730;9.114;2023-02-08T17:35:15;1.50;77.10
9125;DHT22;4597;48.730;9.114;2023-02-08T17:37:47;1.40;78.00
9125;DHT22;4597;48.730;9.114;2023-02-08T17:40:16;1.40;79.20
9125;DHT22;4597;48.730;9.114;2023-02-08T17:42:42;1.30;80.60
9125;DHT22;4597;48.730;9.114;2023-02-08T17:45:08;1.20;82.40
9125;DHT22;4597;48.730;9.114;2023-02-08T17:47:34;1.20;82.80
9125;DHT22;4597;48.730;9.114;2023-02-08T17:50:02;1.10;83.90
9125;DHT22;4597;48.730;9.114;2023-02-08T17:52:27;1.10;85.90
9125;DHT22;4597;48.730;9.114;2023-02-08T17:54:53;1.00;85.40
9125;DHT22;4597;48.730;9.114;2023-02-08T17:57:19;1.00;87.50
9125;DHT22;4597;48.730;9.114;2023-02-08T17:59:46;1.00;89.60
9125;DHT22;4597;48.730;9.114;2023-02-08T18:02:11;0.90;89.50
9125;DHT22;4597;48.730;9.114;2023-02-08T18:04:37;0.90;90.20
9125;DHT22;4597;48.730;9.114;2023-02-08T18:07:02;0.90;91.00
9125;DHT22;4597;48.730;9.114;2023-02-08T18:09:28;0.80;91.90
9125;DHT22;4597;48.730;9.114;2023-02-08T18:11:53;0.80;93.00
9125;DHT22;4597;48.730;9.114;2023-02-08T18:14:19;0.70;93.80
9125;DHT22;4597;48.730;9.114;2023-02-08T18:16:44;0.70;95.00
9125;DHT22;4597;48.730;9.114;2023-02-08T18:19:10;0.70;96.10
9125;DHT22;4597;48.730;9.114;2023-02-08T18:21:35;0.60;97.60